Time;durP1;ratioP1;P1;durP2;ratioP2;P2;SDS_P1;SDS_P2;PMS_P1;PMS_P2;Temp;Humidity;BMP_temperature;BMP_pressure;BME280_temperature;BME280_humidity;BME280_pressure;Samples;Min_cycle;Max_cycle;Signal;HPM_P1;HPM_P2
2021/12/16 00:01:48;;;;;;;41.80;22.60;;;;;;;1.37;83.47;102198.39;105757;1272;59329;-78
2021/12/16 00:07:32;;;;;;;32.80;17.00;;;;;;;1.42;83.33;102203.31;105768;1272;72674;-79
2021/12/16 00:35:04;;;;;;;32.40;17.20;;;;;;;1.53;83.61;102215.90;105704;1272;58968;-83
2021/12/16 00:37:33;;;;;;;43.00;22.80;;;;;;;1.56;83.64;102213.96;105614;1275;71734;-80
2021/12/16 00:40:06;;;;;;;38.90;20.70;;;;;;;1.48;83.39;102216.14;105530;1272;71136;-81
2021/12/16 00:42:46;;;;;;;40.10;19.20;;;;;;;1.51;83.33;102221.42;105931;1272;71439;-73
2021/12/16 00:48:48;;;;;;;37.20;20.60;;;;;;;1.44;84.00;102214.96;105625;1275;61194;-77
2021/12/16 00:54:12;;;;;;;42.20;22.30;;;;;;;1.57;83.27;102219.64;106281;1274;73011;-74
2021/12/16 00:56:57;;;;;;;37.90;20.70;;;;;;;1.51;83.48;102215.07;106719;1274;73065;-80
2021/12/16 00:59:32;;;;;;;43.40;23.20;;;;;;;1.52;83.23;102216.42;106150;1271;70095;-76
2021/12/16 01:07:49;;;;;;;43.60;23.20;;;;;;;1.58;83.59;102215.84;105979;1272;59337;-77
2021/12/16 01:36:27;;;;;;;41.60;22.40;;;;;;;1.51;82.95;102192.23;105733;1272;74701;-77
2021/12/16 01:49:56;;;;;;;39.60;21.60;;;;;;;1.60;83.18;102181.66;105568;1272;69729;-75
2021/12/16 01:53:01;;;;;;;37.40;19.40;;;;;;;1.59;82.92;102186.13;105627;1275;73477;-76
2021/12/16 01:55:45;;;;;;;36.00;19.50;;;;;;;1.53;83.09;102184.30;105654;1275;61097;-77
2021/12/16 01:58:19;;;;;;;43.00;19.20;;;;;;;1.59;83.46;102184.58;105812;1269;59769;-77
2021/12/16 02:01:20;;;;;;;40.00;20.30;;;;;;;1.65;83.46;102183.13;105633;1272;73656;-77
2021/12/16 02:04:10;;;;;;;35.50;18.80;;;;;;;1.70;82.98;102179.48;105795;1271;72695;-75
2021/12/16 02:07:00;;;;;;;38.70;20.80;;;;;;;1.67;82.62;102181.05;107054;1273;72159;-74
2021/12/16 02:09:37;;;;;;;43.80;21.60;;;;;;;1.67;82.91;102181.73;105696;1272;72599;-76
2021/12/16 02:29:02;;;;;;;42.90;22.30;;;;;;;1.69;82.53;102173.30;105624;1275;60946;-76
2021/12/16 02:37:37;;;;;;;39.90;21.10;;;;;;;1.71;82.51;102171.72;105217;1275;71811;-75
2021/12/16 02:40:08;;;;;;;41.60;20.60;;;;;;;1.71;82.66;102172.42;105538;1275;70397;-77
2021/12/16 02:42:50;;;;;;;34.00;18.40;;;;;;;1.77;82.50;102171.83;105556;1275;74342;-72
2021/12/16 02:50:36;;;;;;;41.40;21.70;;;;;;;1.76;82.73;102175.45;105609;1272;73998;-74
2021/12/16 02:53:05;;;;;;;41.20;20.50;;;;;;;1.70;82.71;102176.21;105738;1272;71756;-77
2021/12/16 02:55:34;;;;;;;41.70;22.50;;;;;;;1.72;82.82;102171.54;105605;1275;68370;-77
2021/12/16 02:58:03;;;;;;;41.50;21.60;;;;;;;1.74;82.62;102174.62;105633;1274;73270;-75
2021/12/16 03:00:39;;;;;;;38.30;19.80;;;;;;;1.72;82.58;102174.98;105560;1275;60903;-74
2021/12/16 03:03:08;;;;;;;42.90;22.10;;;;;;;1.75;82.71;102174.27;105460;1276;62738;-74
2021/12/16 03:05:38;;;;;;;39.70;21.70;;;;;;;1.80;83.09;102177.29;105585;1275;72195;-74
2021/12/16 03:08:07;;;;;;;43.60;22.40;;;;;;;1.86;83.18;102175.66;105637;1272;71104;-79
2021/12/16 03:11:02;;;;;;;47.20;24.30;;;;;;;1.85;82.90;102174.31;105689;1272;69074;-72
2021/12/16 03:13:42;;;;;;;45.80;23.70;;;;;;;1.69;83.29;102177.59;105391;1275;74595;-78
2021/12/16 03:16:31;;;;;;;41.60;21.00;;;;;;;1.77;82.90;102180.42;105431;1270;59989;-77
2021/12/16 03:19:12;;;;;;;46.80;21.90;;;;;;;1.73;83.16;102177.54;105653;1272;61152;-77
2021/12/16 03:21:50;;;;;;;48.70;23.50;;;;;;;1.62;83.62;102174.08;105643;1272;73038;-76
2021/12/16 03:30:00;;;;;;;44.30;22.70;;;;;;;1.78;83.24;102177.13;105461;1275;73687;-77
2021/12/16 03:33:21;;;;;;;41.90;22.00;;;;;;;1.79;83.20;102178.67;105654;1271;61917;-76
2021/12/16 03:38:20;;;;;;;35.80;17.30;;;;;;;1.76;82.63;102182.14;105744;1271;75261;-76
2021/12/16 03:40:49;;;;;;;41.10;22.10;;;;;;;1.82;83.25;102183.96;106031;1275;72818;-77
2021/12/16 03:43:19;;;;;;;47.40;22.80;;;;;;;1.74;83.06;102177.35;106363;1273;69295;-76
2021/12/16 03:48:47;;;;;;;32.20;15.30;;;;;;;1.74;82.77;102175.81;105756;1273;61674;-74
2021/12/16 03:51:43;;;;;;;37.20;18.50;;;;;;;1.70;82.70;102176.55;105645;1275;61164;-74
2021/12/16 03:54:17;;;;;;;40.90;21.80;;;;;;;1.79;82.93;102173.69;105573;1275;75977;-76
2021/12/16 03:56:47;;;;;;;40.10;20.50;;;;;;;1.80;83.13;102173.86;105550;1274;73818;-76
2021/12/16 03:59:25;;;;;;;35.60;20.10;;;;;;;1.82;83.10;102173.30;105511;1271;72019;-76
2021/12/16 04:02:11;;;;;;;35.90;18.60;;;;;;;1.89;82.74;102173.91;105432;1272;72551;-78
2021/12/16 04:04:43;;;;;;;37.30;19.00;;;;;;;1.85;82.68;102171.21;105704;1272;61905;-78
2021/12/16 04:07:11;;;;;;;39.70;19.50;;;;;;;1.86;82.89;102171.54;105697;1272;61140;-74
2021/12/16 04:09:59;;;;;;;33.40;17.10;;;;;;;1.79;82.53;102170.94;105645;1275;73971;-78
2021/12/16 04:12:29;;;;;;;34.20;17.80;;;;;;;1.78;82.80;102172.14;105842;1272;72685;-78
2021/12/16 04:15:00;;;;;;;33.00;16.80;;;;;;;1.80;83.23;102175.40;105858;1272;70898;-77
2021/12/16 04:17:31;;;;;;;34.60;18.70;;;;;;;1.83;83.05;102172.61;105814;1274;72636;-80
2021/12/16 04:20:09;;;;;;;34.30;18.20;;;;;;;1.78;83.32;102170.27;105821;1272;59590;-79
2021/12/16 04:22:42;;;;;;;29.20;14.50;;;;;;;1.77;83.15;102170.28;105882;1275;60883;-72
2021/12/16 04:25:30;;;;;;;38.80;19.20;;;;;;;1.75;82.92;102168.59;105891;1272;74896;-76
2021/12/16 04:28:03;;;;;;;35.30;18.70;;;;;;;1.68;83.68;102172.29;105924;1272;69985;-77
2021/12/16 04:30:33;;;;;;;32.60;17.90;;;;;;;1.71;83.56;102175.00;105873;1271;68809;-76
2021/12/16 04:33:03;;;;;;;34.30;17.30;;;;;;;1.70;83.27;102182.73;106293;1272;72783;-78
2021/12/16 04:35:34;;;;;;;29.20;14.70;;;;;;;1.70;83.64;102178.44;106379;1272;62129;-75
2021/12/16 04:38:06;;;;;;;36.90;19.30;;;;;;;1.75;83.57;102178.89;106028;1272;60570;-78
2021/12/16 04:40:36;;;;;;;35.80;18.40;;;;;;;1.73;83.67;102175.65;105908;1272;72594;-76
2021/12/16 04:43:07;;;;;;;33.30;17.60;;;;;;;1.71;83.50;102172.77;106216;1272;70395;-75
2021/12/16 04:45:59;;;;;;;33.10;17.40;;;;;;;1.71;83.64;102176.38;105760;1271;70668;-75
2021/12/16 04:48:29;;;;;;;37.20;18.80;;;;;;;1.68;83.76;102171.24;105804;1272;71743;-76
2021/12/16 04:50:58;;;;;;;38.10;20.90;;;;;;;1.78;83.84;102178.67;105478;1276;62263;-77
2021/12/16 04:53:27;;;;;;;37.10;18.30;;;;;;;1.80;83.69;102177.10;105764;1271;61037;-77
2021/12/16 04:55:57;;;;;;;32.60;17.60;;;;;;;1.75;83.35;102173.22;105822;1272;73110;-77
2021/12/16 04:58:26;;;;;;;30.10;16.60;;;;;;;1.67;83.27;102168.00;105602;1274;70372;-78
2021/12/16 05:00:55;;;;;;;33.90;17.60;;;;;;;1.64;83.43;102170.61;105716;1271;67921;-76
2021/12/16 05:03:31;;;;;;;34.30;17.70;;;;;;;1.66;83.69;102169.23;105621;1273;72569;-76
2021/12/16 05:06:06;;;;;;;25.20;14.40;;;;;;;1.72;83.56;102165.20;105659;1275;59606;-79
2021/12/16 05:08:36;;;;;;;32.40;16.30;;;;;;;1.68;83.82;102160.60;105708;1272;60133;-79
2021/12/16 05:11:14;;;;;;;30.90;16.70;;;;;;;1.65;83.64;102158.73;105745;1271;75298;-80
2021/12/16 05:13:45;;;;;;;37.00;17.80;;;;;;;1.66;83.45;102155.48;105555;1276;71915;-72
2021/12/16 05:16:14;;;;;;;32.40;18.30;;;;;;;1.57;83.83;102156.79;105589;1274;69631;-74
2021/12/16 05:18:47;;;;;;;34.90;19.70;;;;;;;1.52;84.16;102153.58;105639;1271;73501;-73
2021/12/16 05:24:25;;;;;;;43.10;21.30;;;;;;;1.50;84.34;102145.36;105673;1271;61437;-76
2021/12/16 05:27:10;;;;;;;36.60;19.80;;;;;;;1.47;84.12;102139.05;105650;1274;73344;-76
2021/12/16 05:29:39;;;;;;;30.00;18.20;;;;;;;1.48;84.03;102140.24;105775;1272;71252;-76
2021/12/16 05:32:10;;;;;;;37.90;19.70;;;;;;;1.48;84.22;102137.49;105458;1274;66899;-76
2021/12/16 05:34:40;;;;;;;32.60;17.70;;;;;;;1.46;84.24;102134.59;105330;1279;71658;-74
2021/12/16 05:37:09;;;;;;;32.20;17.20;;;;;;;1.45;84.39;102141.98;105163;1278;59789;-73
2021/12/16 05:39:40;;;;;;;37.60;20.30;;;;;;;1.36;84.48;102137.46;105321;1276;61406;-72
2021/12/16 05:42:30;;;;;;;42.20;24.10;;;;;;;1.36;84.50;102132.64;104989;1278;551353;-72
2021/12/16 05:44:59;;;;;;;34.80;18.80;;;;;;;1.30;84.76;102123.62;105140;1277;70250;-71
2021/12/16 05:47:28;;;;;;;34.60;19.40;;;;;;;1.44;84.50;102141.15;105280;1277;68772;-71
2021/12/16 05:49:57;;;;;;;35.90;19.50;;;;;;;1.47;84.13;102142.48;105302;1278;72391;-70
2021/12/16 05:52:26;;;;;;;33.80;18.80;;;;;;;1.40;84.31;102143.95;105384;1276;60574;-71
2021/12/16 05:54:55;;;;;;;33.80;18.70;;;;;;;1.40;84.46;102151.31;105163;1279;59765;-72
2021/12/16 05:58:18;;;;;;;36.90;19.30;;;;;;;1.48;84.05;102152.77;105192;1280;71855;-73
2021/12/16 06:00:52;;;;;;;29.10;16.60;;;;;;;1.49;83.97;102150.19;107440;1277;70443;-71
2021/12/16 06:03:21;;;;;;;34.50;19.30;;;;;;;1.50;84.18;102151.38;107280;1275;69311;-72
2021/12/16 06:05:51;;;;;;;34.80;18.90;;;;;;;1.51;84.01;102147.75;105467;1272;73207;-72
2021/12/16 06:08:20;;;;;;;24.30;14.40;;;;;;;1.53;83.71;102162.16;107641;1275;60439;-73
2021/12/16 06:13:24;;;;;;;27.50;15.90;;;;;;;1.65;83.47;102163.91;105782;1273;71791;-71
2021/12/16 06:27:12;;;;;;;23.60;12.80;;;;;;;1.49;83.01;102177.48;105554;1271;62188;-70
2021/12/16 06:29:45;;;;;;;22.70;12.70;;;;;;;1.64;82.52;102178.02;105836;1272;73170;-73
2021/12/16 06:32:14;;;;;;;28.60;13.10;;;;;;;1.68;82.36;102181.91;105755;1271;72682;-73
2021/12/16 06:34:43;;;;;;;23.00;13.80;;;;;;;1.63;82.18;102182.64;105776;1272;70215;-74
2021/12/16 06:37:12;;;;;;;25.30;13.80;;;;;;;1.60;82.26;102181.48;105905;1272;74372;-72
2021/12/16 06:39:41;;;;;;;28.30;14.90;;;;;;;1.62;82.34;102176.30;105890;1272;59632;-74
2021/12/16 06:42:24;;;;;;;26.50;14.50;;;;;;;1.61;82.35;102174.25;105711;1271;60635;-72
2021/12/16 06:45:06;;;;;;;20.10;11.80;;;;;;;1.66;82.44;102174.38;105637;1272;74091;-73
2021/12/16 06:47:43;;;;;;;28.80;16.60;;;;;;;1.64;82.33;102173.17;105603;1271;72234;-71
2021/12/16 06:50:22;;;;;;;30.90;17.20;;;;;;;1.65;82.24;102179.02;105701;1272;70638;-74
2021/12/16 06:52:54;;;;;;;24.80;13.80;;;;;;;1.66;82.24;102177.80;105517;1272;74768;-75
2021/12/16 06:55:52;;;;;;;26.70;13.20;;;;;;;1.71;82.38;102176.36;105495;1271;63051;-72
2021/12/16 06:58:31;;;;;;;24.20;14.90;;;;;;;1.77;82.22;102184.20;105366;1272;59623;-74
2021/12/16 07:01:16;;;;;;;25.50;15.30;;;;;;;1.76;81.62;102186.79;105580;1272;74546;-74
2021/12/16 07:03:47;;;;;;;24.10;14.40;;;;;;;1.74;81.67;102193.67;105520;1272;71835;-72
2021/12/16 07:06:29;;;;;;;25.70;14.60;;;;;;;1.69;81.60;102190.65;105600;1271;70963;-72
2021/12/16 07:09:13;;;;;;;23.00;13.80;;;;;;;1.74;81.49;102193.67;105531;1272;75853;-74
2021/12/16 07:11:44;;;;;;;24.20;14.00;;;;;;;1.75;81.25;102194.18;105472;1275;60986;-74
2021/12/16 07:14:15;;;;;;;22.70;12.10;;;;;;;1.78;80.39;102195.01;105444;1272;62082;-73
2021/12/16 07:16:47;;;;;;;24.80;13.50;;;;;;;1.78;80.39;102198.95;105581;1275;74915;-75
2021/12/16 07:19:16;;;;;;;20.70;11.40;;;;;;;1.83;80.04;102200.95;105665;1271;69470;-72
2021/12/16 07:21:45;;;;;;;24.10;14.50;;;;;;;1.86;80.02;102202.80;105547;1272;71024;-74
2021/12/16 07:24:17;;;;;;;20.60;11.40;;;;;;;1.81;79.99;102199.60;105661;1271;72441;-74
2021/12/16 07:26:46;;;;;;;19.20;10.90;;;;;;;1.95;79.90;102199.96;105622;1272;61854;-72
2021/12/16 07:29:15;;;;;;;20.40;11.20;;;;;;;1.99;79.45;102191.98;105582;1272;60377;-74
2021/12/16 07:31:44;;;;;;;22.50;13.40;;;;;;;1.99;78.94;102190.79;105560;1272;72963;-71
2021/12/16 07:34:13;;;;;;;20.80;12.70;;;;;;;1.91;78.90;102189.70;105687;1272;72513;-73
2021/12/16 07:36:43;;;;;;;20.10;11.00;;;;;;;1.94;78.90;102182.27;105586;1273;70408;-71
2021/12/16 07:39:16;;;;;;;25.50;14.40;;;;;;;2.04;78.60;102183.16;105478;1274;74959;-73
2021/12/16 07:41:51;;;;;;;23.40;14.20;;;;;;;2.03;78.32;102186.79;105618;1271;60670;-70
2021/12/16 07:44:20;;;;;;;19.80;11.60;;;;;;;2.09;78.26;102182.23;106334;1272;60503;-76
2021/12/16 07:46:57;;;;;;;18.10;10.70;;;;;;;2.14;77.51;102182.85;105902;1271;73022;-74
2021/12/16 07:49:33;;;;;;;21.70;12.70;;;;;;;2.15;76.99;102190.06;105665;1274;71723;-74
2021/12/16 07:52:08;;;;;;;20.40;11.80;;;;;;;2.07;76.91;102185.18;105785;1271;70496;-76
2021/12/16 07:54:37;;;;;;;16.90;10.00;;;;;;;2.18;76.59;102179.35;105765;1271;74062;-78
2021/12/16 07:57:07;;;;;;;18.70;11.10;;;;;;;2.09;75.59;102186.02;105629;1275;59894;-77
2021/12/16 07:59:36;;;;;;;17.90;11.00;;;;;;;2.15;75.55;102181.30;105503;1275;59692;-76
2021/12/16 08:02:08;;;;;;;17.80;10.00;;;;;;;2.19;74.90;102186.91;105841;1272;74461;-75
2021/12/16 08:04:42;;;;;;;19.30;11.50;;;;;;;2.22;74.83;102184.80;105727;1272;70869;-73
2021/12/16 08:07:14;;;;;;;17.90;11.30;;;;;;;2.30;75.02;102184.86;105832;1271;69691;-75
2021/12/16 08:09:43;;;;;;;17.50;10.00;;;;;;;2.31;74.40;102184.34;105618;1271;73585;-76
2021/12/16 08:12:14;;;;;;;19.00;11.40;;;;;;;2.22;74.09;102184.29;105729;1272;59912;-76
2021/12/16 08:14:43;;;;;;;17.10;10.20;;;;;;;2.24;74.37;102184.95;105700;1271;58950;-76
2021/12/16 08:17:13;;;;;;;18.80;10.60;;;;;;;2.32;74.07;102180.36;105571;1274;75275;-77
2021/12/16 08:19:45;;;;;;;17.90;10.20;;;;;;;2.18;73.62;102190.70;105606;1271;71633;-77
2021/12/16 08:22:14;;;;;;;19.10;10.90;;;;;;;2.24;74.35;102187.70;105707;1271;69704;-77
2021/12/16 08:24:44;;;;;;;18.20;11.30;;;;;;;2.32;74.03;102188.62;105406;1275;74273;-76
2021/12/16 08:27:13;;;;;;;16.60;10.10;;;;;;;2.40;72.84;102192.96;105686;1272;60170;-75
2021/12/16 08:29:43;;;;;;;16.80;9.60;;;;;;;2.32;73.28;102194.11;105540;1274;59702;-77
2021/12/16 08:32:12;;;;;;;19.80;10.70;;;;;;;2.27;73.23;102195.03;105641;1271;74101;-74
2021/12/16 08:34:43;;;;;;;14.50;8.60;;;;;;;2.29;73.18;102197.94;105367;1275;72036;-73
2021/12/16 08:37:14;;;;;;;17.10;10.40;;;;;;;2.35;72.80;102194.42;105558;1275;69162;-71
2021/12/16 08:39:44;;;;;;;17.00;9.50;;;;;;;2.32;73.08;102197.55;105378;1272;74014;-69
2021/12/16 08:42:13;;;;;;;18.80;11.10;;;;;;;2.35;73.27;102199.23;105372;1277;59657;-69
2021/12/16 08:44:42;;;;;;;17.20;10.80;;;;;;;2.38;73.89;102192.48;105713;1272;59748;-73
2021/12/16 08:47:17;;;;;;;16.00;10.80;;;;;;;2.48;73.73;102187.01;105546;1275;73169;-75
2021/12/16 08:49:47;;;;;;;18.80;10.60;;;;;;;2.49;73.03;102187.33;105574;1274;71996;-75
2021/12/16 08:52:21;;;;;;;15.80;8.70;;;;;;;2.46;72.57;102180.15;105638;1271;70249;-74
2021/12/16 08:54:51;;;;;;;14.10;9.10;;;;;;;2.41;72.22;102178.50;105918;1275;72675;-74
2021/12/16 08:57:25;;;;;;;15.00;8.80;;;;;;;2.37;71.82;102170.66;105927;1271;60092;-75
2021/12/16 08:59:54;;;;;;;16.20;8.80;;;;;;;2.38;71.52;102164.11;105698;1271;60463;-75
2021/12/16 09:02:23;;;;;;;13.40;9.20;;;;;;;2.41;70.91;102162.34;106078;1272;72184;-77
2021/12/16 09:04:52;;;;;;;12.80;7.70;;;;;;;2.34;71.13;102160.55;105859;1274;72418;-77
2021/12/16 09:07:22;;;;;;;13.00;7.50;;;;;;;2.42;71.79;102149.95;105846;1272;70664;-80
2021/12/16 09:09:51;;;;;;;12.90;8.10;;;;;;;2.46;70.72;102145.05;105850;1272;74523;-74
2021/12/16 09:15:00;;;;;;;12.30;7.70;;;;;;;2.50;70.27;102127.47;105734;1272;61645;-76
2021/12/16 09:17:29;;;;;;;11.60;6.50;;;;;;;2.51;69.93;102126.42;105830;1271;73652;-77
2021/12/16 09:19:58;;;;;;;12.00;6.90;;;;;;;2.50;69.32;102129.20;105681;1275;73032;-77
2021/12/16 09:22:28;;;;;;;12.80;7.70;;;;;;;2.58;69.80;102127.34;105782;1274;70360;-74
2021/12/16 09:25:06;;;;;;;11.00;6.60;;;;;;;2.62;68.90;102130.70;105600;1275;71089;-74
2021/12/16 09:27:43;;;;;;;11.50;6.20;;;;;;;2.63;69.04;102131.89;105892;1272;59755;-74
2021/12/16 09:30:18;;;;;;;9.00;5.50;;;;;;;2.62;68.28;102127.43;105797;1272;58765;-74
2021/12/16 09:33:02;;;;;;;11.10;6.00;;;;;;;2.68;68.49;102130.10;105811;1272;71792;-75
2021/12/16 09:35:39;;;;;;;14.50;8.90;;;;;;;2.69;67.89;102128.70;105904;1272;71198;-73
2021/12/16 09:38:13;;;;;;;13.40;8.40;;;;;;;2.80;69.11;102127.81;105824;1272;69203;-75
2021/12/16 09:40:55;;;;;;;11.50;7.20;;;;;;;2.86;68.62;102127.72;105691;1275;71991;-75
2021/12/16 09:43:35;;;;;;;11.50;6.70;;;;;;;2.89;68.32;102125.25;105844;1272;59658;-75
2021/12/16 09:46:14;;;;;;;12.50;7.30;;;;;;;2.90;68.22;102114.05;105625;1272;60747;-76
2021/12/16 09:49:06;;;;;;;13.20;7.00;;;;;;;2.87;67.68;102112.20;105595;1272;74287;-74
2021/12/16 09:51:54;;;;;;;13.00;7.40;;;;;;;2.83;67.59;102106.59;105721;1272;71294;-74
2021/12/16 09:55:04;;;;;;;14.20;7.20;;;;;;;2.80;67.91;102105.62;105505;1272;68535;-76
2021/12/16 09:57:58;;;;;;;11.40;7.10;;;;;;;2.77;67.94;102108.08;105657;1272;70459;-77
2021/12/16 10:00:41;;;;;;;10.60;7.50;;;;;;;2.71;68.43;102104.91;105680;1272;62044;-74
2021/12/16 10:03:46;;;;;;;16.90;8.50;;;;;;;2.82;68.56;102098.70;105582;1272;60339;-76
2021/12/16 10:06:40;;;;;;;15.00;8.30;;;;;;;2.75;69.04;102091.95;105683;1272;72988;-75
2021/12/16 10:09:24;;;;;;;13.90;7.40;;;;;;;2.71;69.15;102095.80;105591;1268;70452;-72
2021/12/16 10:12:18;;;;;;;18.10;9.60;;;;;;;2.67;69.13;102085.20;105675;1271;68671;-75
2021/12/16 10:17:43;;;;;;;15.50;9.10;;;;;;;2.86;68.91;102089.17;105547;1271;60224;-75
2021/12/16 10:20:38;;;;;;;15.20;8.80;;;;;;;2.82;69.19;102087.52;105630;1272;59211;-74
2021/12/16 10:23:39;;;;;;;16.60;9.70;;;;;;;2.72;69.40;102086.85;105741;1273;72303;-74
2021/12/16 10:26:21;;;;;;;13.40;7.50;;;;;;;2.77;69.63;102089.52;105789;1272;69631;-76
2021/12/16 10:29:02;;;;;;;11.30;6.20;;;;;;;2.81;68.86;102081.69;105709;1271;69623;-72
2021/12/16 10:31:41;;;;;;;12.70;7.40;;;;;;;2.92;68.80;102076.14;105725;1271;71049;-75
2021/12/16 10:34:15;;;;;;;10.90;6.30;;;;;;;2.95;68.78;102067.66;105607;1275;59680;-73
2021/12/16 10:36:55;;;;;;;14.00;7.40;;;;;;;2.87;69.07;102069.35;105733;1271;59658;-76
2021/12/16 10:39:31;;;;;;;13.20;8.00;;;;;;;2.94;68.36;102061.14;105776;1271;72580;-76
2021/12/16 10:42:04;;;;;;;12.00;7.70;;;;;;;2.85;68.54;102058.05;105725;1271;72188;-76
2021/12/16 10:44:35;;;;;;;15.00;7.70;;;;;;;2.80;69.33;102057.79;105699;1271;70461;-75
2021/12/16 10:47:12;;;;;;;13.10;7.60;;;;;;;2.85;69.23;102055.62;105643;1272;74925;-76
2021/12/16 10:49:49;;;;;;;14.50;9.50;;;;;;;2.91;69.05;102047.95;105721;1272;59644;-75
2021/12/16 10:52:27;;;;;;;19.10;10.00;;;;;;;2.94;69.16;102042.91;105593;1272;59543;-76
2021/12/16 10:54:57;;;;;;;13.30;8.90;;;;;;;2.94;68.86;102038.42;105770;1272;73367;-76
2021/12/16 10:57:29;;;;;;;11.00;7.10;;;;;;;2.91;69.31;102032.46;105735;1272;69659;-76
2021/12/16 11:00:08;;;;;;;14.50;8.50;;;;;;;2.99;69.58;102035.42;105697;1273;68758;-74
2021/12/16 11:02:38;;;;;;;13.50;7.90;;;;;;;3.02;69.59;102031.23;105813;1272;73609;-74
2021/12/16 11:05:19;;;;;;;18.00;10.60;;;;;;;3.03;69.18;102033.42;105871;1272;59501;-74
2021/12/16 11:07:55;;;;;;;14.20;8.20;;;;;;;2.95;69.70;102029.28;105804;1271;61332;-71
2021/12/16 11:10:29;;;;;;;17.00;9.50;;;;;;;2.98;69.91;102025.44;105742;1272;75186;-71
2021/12/16 11:13:04;;;;;;;16.70;9.40;;;;;;;3.02;70.66;102020.53;105446;1275;71356;-73
2021/12/16 11:15:48;;;;;;;17.50;9.10;;;;;;;3.12;71.08;102020.67;105643;1275;68924;-75
2021/12/16 11:18:23;;;;;;;16.50;9.10;;;;;;;3.22;71.19;102025.48;105780;1272;73877;-73
2021/12/16 11:20:58;;;;;;;16.80;9.80;;;;;;;3.24;70.62;102028.52;105687;1272;61366;-71
2021/12/16 11:23:38;;;;;;;19.10;10.70;;;;;;;3.31;70.26;102024.42;105842;1275;60450;-70
2021/12/16 11:26:19;;;;;;;15.60;8.40;;;;;;;3.38;71.06;102025.46;105657;1275;74126;-73
2021/12/16 11:28:50;;;;;;;15.90;9.70;;;;;;;3.39;71.30;102021.30;105681;1272;70421;-73
2021/12/16 11:31:24;;;;;;;17.50;10.30;;;;;;;3.30;70.06;102021.52;105891;1274;67844;-74
2021/12/16 11:33:55;;;;;;;15.50;8.80;;;;;;;3.25;70.04;102015.27;105777;1271;73910;-70
2021/12/16 11:36:43;;;;;;;16.80;10.20;;;;;;;3.35;71.30;102011.93;105761;1272;63552;-71
2021/12/16 11:39:24;;;;;;;17.70;9.30;;;;;;;3.39;71.85;102003.05;105738;1272;60767;-72
2021/12/16 11:42:03;;;;;;;19.80;10.70;;;;;;;3.39;71.56;102000.83;105740;1271;73743;-72
2021/12/16 11:44:37;;;;;;;19.40;10.50;;;;;;;3.38;71.85;102005.48;105761;1272;70499;-74
2021/12/16 11:47:25;;;;;;;17.90;10.50;;;;;;;3.33;70.80;102007.67;105671;1272;68004;-74
2021/12/16 11:49:59;;;;;;;16.70;10.00;;;;;;;3.28;71.37;102005.38;105390;1278;72994;-73
2021/12/16 11:52:37;;;;;;;17.60;9.90;;;;;;;3.37;71.77;102005.00;105844;1271;59467;-72
2021/12/16 11:55:12;;;;;;;16.40;8.70;;;;;;;3.34;71.51;102004.22;105547;1272;59751;-72
2021/12/16 11:57:44;;;;;;;14.10;7.50;;;;;;;3.37;71.96;102005.85;105534;1268;72537;-74
2021/12/16 12:00:18;;;;;;;17.80;9.60;;;;;;;3.41;72.18;102002.67;105996;1272;70243;-75
2021/12/16 12:03:00;;;;;;;16.90;9.10;;;;;;;3.43;72.32;102003.85;105780;1272;68732;-77
2021/12/16 12:05:42;;;;;;;16.20;9.10;;;;;;;3.47;72.18;101997.20;105483;1275;73366;-73
2021/12/16 12:08:26;;;;;;;16.80;9.50;;;;;;;3.52;72.46;101995.02;106035;1272;59637;-73
2021/12/16 12:11:23;;;;;;;20.40;9.80;;;;;;;3.52;72.58;101995.55;105544;1272;60291;-72
2021/12/16 12:14:03;;;;;;;18.60;9.70;;;;;;;3.56;73.01;101992.88;105540;1276;72365;-74
2021/12/16 12:16:44;;;;;;;18.00;9.20;;;;;;;3.53;72.44;101990.01;105746;1272;72275;-72
2021/12/16 12:19:18;;;;;;;19.20;10.20;;;;;;;3.52;72.07;101986.75;105694;1275;71211;-74
2021/12/16 12:21:56;;;;;;;21.20;10.20;;;;;;;3.49;72.52;101984.94;105560;1274;72435;-74
2021/12/16 12:24:37;;;;;;;20.90;10.40;;;;;;;3.52;72.80;101984.34;105815;1272;59594;-74
2021/12/16 12:27:21;;;;;;;20.80;11.90;;;;;;;3.46;72.42;101975.89;105794;1275;60304;-73
2021/12/16 12:29:57;;;;;;;22.20;11.70;;;;;;;3.50;72.74;101969.05;105921;1272;70904;-73
2021/12/16 12:32:39;;;;;;;20.90;10.20;;;;;;;3.44;72.82;101970.23;105755;1272;71149;-77
2021/12/16 12:35:25;;;;;;;23.60;12.40;;;;;;;3.47;73.09;101969.48;105803;1272;69679;-74
2021/12/16 12:38:00;;;;;;;23.10;11.40;;;;;;;3.51;72.91;101970.58;105791;1275;72368;-73
2021/12/16 12:40:41;;;;;;;26.30;13.40;;;;;;;3.53;73.05;101970.02;105700;1275;60455;-83
2021/12/16 12:43:10;;;;;;;20.90;11.80;;;;;;;3.55;72.97;101964.99;105659;1271;60157;-73
2021/12/16 12:45:41;;;;;;;24.90;12.70;;;;;;;3.53;72.54;101965.56;105723;1271;71860;-72
2021/12/16 12:48:16;;;;;;;22.70;11.90;;;;;;;3.50;72.64;101962.71;105698;1272;72271;-74
2021/12/16 12:50:48;;;;;;;24.10;12.00;;;;;;;3.42;72.40;101957.02;105494;1275;69300;-74
2021/12/16 12:53:28;;;;;;;16.80;8.60;;;;;;;3.46;73.43;101956.92;105649;1271;71977;-74
2021/12/16 12:56:15;;;;;;;22.30;12.10;;;;;;;3.49;73.18;101953.08;105455;1272;59722;-75
2021/12/16 12:59:02;;;;;;;25.70;13.80;;;;;;;3.40;73.03;101952.58;105629;1275;59751;-73
2021/12/16 13:01:38;;;;;;;24.00;12.00;;;;;;;3.41;73.38;101954.29;105731;1275;74568;-72
2021/12/16 13:04:25;;;;;;;22.50;9.90;;;;;;;3.40;73.51;101954.13;105566;1271;72035;-71
2021/12/16 13:07:05;;;;;;;22.50;11.90;;;;;;;3.45;73.61;101951.27;105378;1275;67814;-71
2021/12/16 13:09:45;;;;;;;22.30;11.40;;;;;;;3.49;73.69;101951.85;105594;1274;73865;-72
2021/12/16 13:12:52;;;;;;;24.50;13.50;;;;;;;3.46;73.16;101954.34;105644;1275;60394;-75
2021/12/16 13:15:49;;;;;;;25.20;12.70;;;;;;;3.43;73.45;101952.16;107572;1274;63002;-74
2021/12/16 13:27:19;;;;;;;23.10;13.50;;;;;;;3.35;73.88;101940.13;105760;1272;73850;-77
2021/12/16 13:33:26;;;;;;;21.10;12.30;;;;;;;3.37;74.15;101943.00;104950;1280;60843;-77
2021/12/16 13:36:05;;;;;;;21.40;12.00;;;;;;;3.39;73.96;101939.88;104928;1280;75252;-74
2021/12/16 13:38:44;;;;;;;22.90;13.30;;;;;;;3.32;74.07;101931.23;105196;1274;72684;-73
2021/12/16 13:41:23;;;;;;;18.40;10.30;;;;;;;3.32;74.26;101933.64;105639;1271;70455;-75
2021/12/16 13:44:15;;;;;;;22.40;11.80;;;;;;;3.38;73.92;101935.05;105068;1274;640159;-74
2021/12/16 13:47:06;;;;;;;17.40;10.00;;;;;;;3.42;73.92;101939.11;105601;1271;60454;-73
2021/12/16 14:00:22;;;;;;;24.40;13.40;;;;;;;3.39;74.34;101933.13;105651;1272;68714;-73
2021/12/16 14:02:55;;;;;;;24.90;14.20;;;;;;;3.39;74.75;101925.21;105495;1271;72040;-75
2021/12/16 14:08:52;;;;;;;28.80;16.00;;;;;;;3.42;74.71;101918.60;105547;1271;61363;-71
2021/12/16 14:18:00;;;;;;;29.90;16.10;;;;;;;3.48;74.96;101907.29;105587;1272;69224;-72
2021/12/16 14:23:36;;;;;;;27.70;14.60;;;;;;;3.50;74.63;101900.35;105430;1274;61123;-71
2021/12/16 14:40:01;;;;;;;30.00;15.00;;;;;;;3.48;74.82;101878.70;105577;1275;62206;-72
2021/12/16 14:43:38;;;;;;;;;;;;;;;;;;;;;
2021/12/16 14:46:01;;;;;;;31.60;16.10;;;;;;;3.46;75.29;101872.01;105596;1272;72565;-78
2021/12/16 14:48:35;;;;;;;30.60;15.70;;;;;;;3.44;75.28;101868.80;105582;1275;70424;-79
2021/12/16 14:51:10;;;;;;;30.10;15.70;;;;;;;3.44;75.22;101865.17;105515;1273;68755;-85
2021/12/16 14:53:43;;;;;;;32.50;15.70;;;;;;;3.45;75.48;101861.69;105638;1272;73182;-77
2021/12/16 14:56:36;;;;;;;30.10;17.30;;;;;;;3.43;75.85;101862.95;105569;1274;61454;-79
2021/12/16 14:59:11;;;;;;;35.60;18.60;;;;;;;3.40;76.12;101858.55;105413;1275;60956;-79
2021/12/16 15:01:44;;;;;;;25.90;14.30;;;;;;;3.39;76.34;101867.71;105525;1274;73064;-79
2021/12/16 15:04:16;;;;;;;31.20;17.00;;;;;;;3.41;76.45;101861.46;105681;1275;68892;-77